createdAt,value
2022-12-18T00:00:09.725Z,20.20
2022-12-18T00:02:43.336Z,17.50
2022-12-18T00:05:12.392Z,14.57
2022-12-18T00:07:40.372Z,20.67
2022-12-18T00:10:10.503Z,17.15
2022-12-18T00:12:38.496Z,19.00
2022-12-18T00:15:07.333Z,19.30
2022-12-18T00:17:35.276Z,18.60
2022-12-18T00:20:03.478Z,18.90
2022-12-18T00:22:31.411Z,19.98
2022-12-18T00:24:59.400Z,18.75
2022-12-18T00:27:28.766Z,20.20
2022-12-18T00:29:56.769Z,19.27
2022-12-18T00:32:24.768Z,17.35
2022-12-18T00:34:52.689Z,19.80
2022-12-18T00:37:20.694Z,19.70
2022-12-18T00:39:52.502Z,20.40
2022-12-18T00:42:38.872Z,20.15
2022-12-18T00:45:13.000Z,18.50
2022-12-18T00:47:41.832Z,20.70
2022-12-18T00:50:11.158Z,20.67
2022-12-18T00:52:39.238Z,20.92
2022-12-18T00:55:07.978Z,20.52
2022-12-18T00:57:36.186Z,20.25
2022-12-18T01:00:06.329Z,18.65
2022-12-18T01:02:35.883Z,19.98
2022-12-18T01:05:03.974Z,20.20
2022-12-18T01:07:32.039Z,19.20
2022-12-18T01:10:00.011Z,19.27
2022-12-18T01:12:28.184Z,19.45
2022-12-18T01:14:56.166Z,18.20
2022-12-18T01:17:24.227Z,19.63
2022-12-18T01:19:53.619Z,20.17
2022-12-18T01:22:21.624Z,18.73
2022-12-18T01:24:49.660Z,19.00
2022-12-18T01:27:17.653Z,18.23
2022-12-18T01:29:45.683Z,19.58
2022-12-18T01:32:13.697Z,20.73
2022-12-18T01:34:42.899Z,19.95
2022-12-18T01:37:12.408Z,20.15
2022-12-18T01:39:40.375Z,22.77
2022-12-18T01:42:14.824Z,19.70
2022-12-18T01:45:06.955Z,19.55
2022-12-18T01:47:40.267Z,18.05
2022-12-18T01:50:12.341Z,19.00
2022-12-18T01:52:44.292Z,19.30
2022-12-18T01:55:13.818Z,18.83
2022-12-18T01:57:43.435Z,20.40
2022-12-18T02:01:12.683Z,21.13
2022-12-18T02:03:43.407Z,18.55
2022-12-18T02:06:18.003Z,19.60
2022-12-18T02:09:00.197Z,20.73
2022-12-18T02:11:41.739Z,19.60
2022-12-18T02:14:20.337Z,19.33
2022-12-18T02:16:54.989Z,19.88
2022-12-18T02:19:41.965Z,20.77
2022-12-18T02:22:27.090Z,18.63
2022-12-18T02:25:06.022Z,20.30
2022-12-18T02:27:37.270Z,20.67
2022-12-18T02:30:08.206Z,21.40
2022-12-18T02:32:41.962Z,20.10
2022-12-18T02:35:15.838Z,20.38
2022-12-18T02:37:47.025Z,20.27
2022-12-18T02:40:19.337Z,19.10
2022-12-18T02:42:48.933Z,20.52
2022-12-18T02:45:19.827Z,20.27
2022-12-18T02:47:51.753Z,20.65
2022-12-18T02:50:32.825Z,20.58
2022-12-18T02:53:13.532Z,19.65
2022-12-18T02:55:55.791Z,21.27
2022-12-18T02:58:32.472Z,21.73
2022-12-18T03:01:16.153Z,21.73
2022-12-18T03:03:50.036Z,20.42
2022-12-18T03:06:25.062Z,21.08
2022-12-18T03:08:58.747Z,20.80
2022-12-18T03:11:49.350Z,19.13
2022-12-18T03:14:22.814Z,18.45
2022-12-18T03:16:56.253Z,19.83
2022-12-18T03:19:28.343Z,22.13
2022-12-18T03:22:03.356Z,22.23
2022-12-18T03:24:40.680Z,22.10
2022-12-18T03:27:14.829Z,21.70
2022-12-18T03:29:48.414Z,19.88
2022-12-18T03:32:27.204Z,22.17
2022-12-18T03:34:59.783Z,22.90
2022-12-18T03:37:32.535Z,22.23
2022-12-18T03:40:01.211Z,21.50
2022-12-18T03:42:38.817Z,22.85
2022-12-18T03:45:22.606Z,24.13
2022-12-18T03:48:00.706Z,21.48
2022-12-18T03:50:39.878Z,22.10
2022-12-18T03:53:17.553Z,22.50
2022-12-18T03:55:53.346Z,22.27
2022-12-18T03:58:26.631Z,22.38
2022-12-18T04:01:11.219Z,23.67
2022-12-18T04:03:43.887Z,23.77
2022-12-18T04:06:13.919Z,24.15
2022-12-18T04:08:44.221Z,24.85
2022-12-18T04:11:17.284Z,24.10
2022-12-18T04:13:47.165Z,24.48
2022-12-18T04:16:25.738Z,24.23
2022-12-18T04:18:57.050Z,22.05
2022-12-18T04:21:29.317Z,29.30
2022-12-18T04:23:57.362Z,28.90
2022-12-18T04:26:25.477Z,28.92
2022-12-18T04:29:19.611Z,26.75
2022-12-18T04:31:48.957Z,28.92
2022-12-18T04:34:17.991Z,24.50
2022-12-18T04:36:51.428Z,24.02
2022-12-18T04:39:19.769Z,22.42
2022-12-18T04:41:54.890Z,21.52
2022-12-18T04:44:22.884Z,21.38
2022-12-18T04:46:53.161Z,21.38
2022-12-18T04:49:21.696Z,23.02
2022-12-18T04:51:49.664Z,23.33
2022-12-18T04:54:17.895Z,19.88
2022-12-18T04:56:45.836Z,20.08
2022-12-18T04:59:15.377Z,15.63
2022-12-18T05:01:43.382Z,19.73
2022-12-18T05:04:13.675Z,19.05
2022-12-18T05:06:41.689Z,19.33
2022-12-18T05:09:09.746Z,19.88
2022-12-18T05:11:37.734Z,18.75
2022-12-18T05:14:05.988Z,18.83
2022-12-18T05:16:34.114Z,21.92
2022-12-18T05:19:02.075Z,21.50
2022-12-18T05:21:31.495Z,22.05
2022-12-18T05:24:06.063Z,21.75
2022-12-18T05:26:34.105Z,20.90
2022-12-18T05:29:02.085Z,20.08
2022-12-18T05:31:32.408Z,22.05
2022-12-18T05:34:03.992Z,22.75
2022-12-18T05:36:33.691Z,21.60
2022-12-18T05:39:02.229Z,20.60
2022-12-18T05:41:30.587Z,21.25
2022-12-18T05:43:58.545Z,20.88
2022-12-18T05:46:26.752Z,21.85
2022-12-18T05:48:54.818Z,20.80
2022-12-18T05:51:24.407Z,21.30
2022-12-18T05:53:54.009Z,23.15
2022-12-18T05:56:25.192Z,26.67
2022-12-18T05:58:55.033Z,25.30
2022-12-18T06:01:27.556Z,23.42
2022-12-18T06:03:56.384Z,22.98
2022-12-18T06:06:26.295Z,22.90
2022-12-18T06:08:56.214Z,25.10
2022-12-18T06:11:26.671Z,25.05
2022-12-18T06:13:58.716Z,29.45
2022-12-18T06:16:27.797Z,31.85
2022-12-18T06:18:57.834Z,30.20
2022-12-18T06:21:25.888Z,25.35
2022-12-18T06:23:55.271Z,23.65
2022-12-18T06:26:28.026Z,26.50
2022-12-18T06:28:56.897Z,22.70
2022-12-18T06:31:25.390Z,26.55
2022-12-18T06:33:53.612Z,27.48
2022-12-18T06:36:22.090Z,25.65
2022-12-18T06:38:50.240Z,29.50
2022-12-18T06:41:22.178Z,31.17
2022-12-18T06:43:55.693Z,30.50
2022-12-18T06:46:24.990Z,32.40
2022-12-18T06:48:53.012Z,27.52
2022-12-18T06:51:21.982Z,28.63
2022-12-18T06:53:50.172Z,25.77
2022-12-18T06:56:19.876Z,26.85
2022-12-18T06:58:48.078Z,31.38
2022-12-18T07:01:16.187Z,29.35
2022-12-18T07:03:45.154Z,30.00
2022-12-18T07:06:18.379Z,29.42
2022-12-18T07:08:48.806Z,29.38
2022-12-18T07:11:18.114Z,30.83
2022-12-18T07:13:48.403Z,33.08
2022-12-18T07:16:24.853Z,33.63
2022-12-18T07:18:53.981Z,36.72
2022-12-18T07:21:22.388Z,38.47
2022-12-18T07:23:50.607Z,30.65
2022-12-18T07:26:20.915Z,28.90
2022-12-18T07:28:50.635Z,23.85
2022-12-18T07:31:21.581Z,25.02
2022-12-18T07:33:50.939Z,26.42
2022-12-18T07:36:19.569Z,27.65
2022-12-18T07:38:50.233Z,23.83
2022-12-18T07:41:19.744Z,25.25
2022-12-18T07:43:48.017Z,26.63
2022-12-18T07:46:18.252Z,23.77
2022-12-18T07:48:49.743Z,24.73
2022-12-18T07:51:19.216Z,27.02
2022-12-18T07:53:52.019Z,29.60
2022-12-18T07:56:27.824Z,28.48
2022-12-18T07:58:57.414Z,26.20
2022-12-18T08:01:27.334Z,25.70
2022-12-18T08:03:55.672Z,29.10
2022-12-18T08:06:24.463Z,24.25
2022-12-18T08:08:54.584Z,27.05
2022-12-18T08:11:23.661Z,29.05
2022-12-18T08:13:51.882Z,28.15
2022-12-18T08:16:20.893Z,29.85
2022-12-18T08:18:50.961Z,27.98
2022-12-18T08:21:22.243Z,25.38
2022-12-18T08:23:51.683Z,26.95
2022-12-18T08:26:21.005Z,25.73
2022-12-18T08:28:49.999Z,21.85
2022-12-18T08:31:19.455Z,20.92
2022-12-18T08:33:50.115Z,23.23
2022-12-18T08:36:20.133Z,22.50
2022-12-18T08:38:48.584Z,21.83
2022-12-18T08:41:19.242Z,21.83
2022-12-18T08:44:04.973Z,24.58
2022-12-18T08:46:37.549Z,23.50
2022-12-18T08:49:08.098Z,22.50
2022-12-18T08:51:38.275Z,23.73
2022-12-18T08:54:07.595Z,25.50
2022-12-18T08:56:36.154Z,22.80
2022-12-18T08:59:05.527Z,22.52
2022-12-18T09:01:33.805Z,22.33
2022-12-18T09:04:03.443Z,21.48
2022-12-18T09:06:32.949Z,21.95
2022-12-18T09:09:02.828Z,17.77
2022-12-18T09:11:34.596Z,19.85
2022-12-18T09:14:03.676Z,20.58
2022-12-18T09:16:36.015Z,18.48
2022-12-18T09:19:06.080Z,21.08
2022-12-18T09:21:36.903Z,21.20
2022-12-18T09:24:08.647Z,23.50
2022-12-18T09:26:37.966Z,22.80
2022-12-18T09:29:08.244Z,22.27
2022-12-18T09:31:36.878Z,21.95
2022-12-18T09:34:04.933Z,21.70
2022-12-18T09:36:33.265Z,19.85
2022-12-18T09:39:05.106Z,21.38
2022-12-18T09:41:46.775Z,16.02
2022-12-18T09:44:28.437Z,19.25
2022-12-18T09:47:12.223Z,20.40
2022-12-18T09:49:44.902Z,18.42
2022-12-18T09:52:17.879Z,19.40
2022-12-18T09:54:48.852Z,19.88
2022-12-18T09:57:21.736Z,21.13
2022-12-18T09:59:56.565Z,16.23
2022-12-18T10:02:27.044Z,12.82
2022-12-18T10:05:09.588Z,18.58
2022-12-18T10:07:50.013Z,18.77
2022-12-18T10:10:32.819Z,16.63
2022-12-18T10:13:11.198Z,20.05
2022-12-18T10:15:44.611Z,19.85
2022-12-18T10:18:28.719Z,18.88
2022-12-18T10:21:02.138Z,22.30
2022-12-18T10:23:35.636Z,19.92
2022-12-18T10:26:06.769Z,21.27
2022-12-18T10:28:41.229Z,23.38
2022-12-18T10:31:14.993Z,24.45
2022-12-18T10:33:43.090Z,20.60
2022-12-18T10:36:11.374Z,18.73
2022-12-18T10:38:40.462Z,18.80
2022-12-18T10:41:27.736Z,16.60
2022-12-18T10:44:20.213Z,21.63
2022-12-18T10:46:50.195Z,20.15
2022-12-18T10:49:24.383Z,11.00
2022-12-18T10:51:54.147Z,15.40
2022-12-18T10:54:25.083Z,17.55
2022-12-18T10:56:53.359Z,19.13
2022-12-18T10:59:22.775Z,18.67
2022-12-18T11:01:53.979Z,19.48
2022-12-18T11:04:24.498Z,19.98
2022-12-18T11:07:00.770Z,20.48
2022-12-18T11:09:30.083Z,19.20
2022-12-18T11:12:00.360Z,19.35
2022-12-18T11:14:32.103Z,18.95
2022-12-18T11:17:31.851Z,18.58
2022-12-18T11:19:55.522Z,17.70
2022-12-18T11:22:27.569Z,18.88
2022-12-18T11:25:30.918Z,17.40
2022-12-18T11:27:51.585Z,19.00
2022-12-18T11:30:27.151Z,19.85
2022-12-18T11:32:59.654Z,18.10
2022-12-18T11:35:39.006Z,17.40
2022-12-18T11:38:24.386Z,17.88
2022-12-18T11:40:58.769Z,18.20
2022-12-18T11:43:37.808Z,17.20
2022-12-18T11:46:16.070Z,16.63
2022-12-18T11:48:52.332Z,18.35
2022-12-18T11:51:27.943Z,19.52
2022-12-18T11:54:00.284Z,19.55
2022-12-18T11:56:34.805Z,17.90
2022-12-18T11:59:15.081Z,19.10
2022-12-18T12:01:53.971Z,20.15
2022-12-18T12:04:43.314Z,22.42
2022-12-18T12:07:33.784Z,18.15
2022-12-18T12:10:14.760Z,18.10
2022-12-18T12:13:05.335Z,19.35
2022-12-18T12:15:45.677Z,19.42
2022-12-18T12:18:24.893Z,19.95
2022-12-18T12:21:02.240Z,19.65
2022-12-18T12:23:38.381Z,16.05
2022-12-18T12:26:10.587Z,16.42
2022-12-18T12:28:55.767Z,19.55
2022-12-18T12:31:32.863Z,17.17
2022-12-18T12:34:09.204Z,17.65
2022-12-18T12:36:47.554Z,17.63
2022-12-18T12:39:20.393Z,15.75
2022-12-18T12:42:06.588Z,17.17
2022-12-18T12:44:43.930Z,16.95
2022-12-18T12:47:17.976Z,16.27
2022-12-18T12:49:49.975Z,16.20
2022-12-18T12:52:29.721Z,15.85
2022-12-18T12:55:03.724Z,17.45
2022-12-18T12:57:39.739Z,16.33
2022-12-18T13:00:14.134Z,15.65
2022-12-18T13:02:49.601Z,16.13
2022-12-18T13:05:26.139Z,15.55
2022-12-18T13:07:59.317Z,17.63
2022-12-18T13:10:36.199Z,15.68
2022-12-18T13:13:07.277Z,15.88
2022-12-18T13:15:42.356Z,17.27
2022-12-18T13:18:17.869Z,16.98
2022-12-18T13:20:55.157Z,14.65
2022-12-18T13:23:41.634Z,15.85
2022-12-18T13:26:35.364Z,13.98
2022-12-18T13:29:05.363Z,16.00
2022-12-18T13:32:10.338Z,16.52
2022-12-18T13:34:38.576Z,16.10
2022-12-18T13:37:46.544Z,17.17
2022-12-18T13:41:00.258Z,15.27
2022-12-18T13:43:35.917Z,16.15
2022-12-18T13:46:20.073Z,18.73
2022-12-18T13:48:54.314Z,18.38
2022-12-18T13:51:23.287Z,16.42
2022-12-18T13:53:55.816Z,17.73
2022-12-18T13:56:26.914Z,18.13
2022-12-18T13:59:18.532Z,18.02
2022-12-18T14:01:48.922Z,19.10
2022-12-18T14:04:26.339Z,18.30
2022-12-18T14:06:58.622Z,18.50
2022-12-18T14:09:31.089Z,17.83
2022-12-18T14:12:20.574Z,18.50
2022-12-18T14:14:53.078Z,19.23
2022-12-18T14:17:23.234Z,19.50
2022-12-18T14:19:53.237Z,19.85
2022-12-18T14:22:23.805Z,19.25
2022-12-18T14:25:17.215Z,19.27
2022-12-18T14:27:49.138Z,21.30
2022-12-18T14:30:28.196Z,23.73
2022-12-18T14:33:03.802Z,29.38
2022-12-18T14:35:32.521Z,33.90
2022-12-18T14:38:23.560Z,33.28
2022-12-18T14:40:56.797Z,37.00
2022-12-18T14:43:25.093Z,34.08
2022-12-18T14:45:53.707Z,31.33
2022-12-18T14:48:26.776Z,28.27
2022-12-18T14:51:00.608Z,28.88
2022-12-18T14:53:36.697Z,29.85
2022-12-18T14:58:48.586Z,31.88
2022-12-18T15:01:26.304Z,34.30
2022-12-18T15:03:55.874Z,36.50
2022-12-18T15:06:30.271Z,34.50
2022-12-18T15:08:58.496Z,34.83
2022-12-18T15:11:36.903Z,33.15
2022-12-18T15:14:24.443Z,33.72
2022-12-18T15:16:55.855Z,32.95
2022-12-18T15:19:27.980Z,33.38
2022-12-18T15:21:58.123Z,39.40
2022-12-18T15:24:32.351Z,38.63
2022-12-18T15:27:02.566Z,40.95
2022-12-18T15:29:30.634Z,43.65
2022-12-18T15:32:03.365Z,54.05
2022-12-18T15:34:32.113Z,52.42
2022-12-18T15:37:00.225Z,44.58
2022-12-18T15:39:28.325Z,40.38
2022-12-18T15:42:13.730Z,39.58
2022-12-18T15:44:43.183Z,39.30
2022-12-18T15:47:14.173Z,40.08
2022-12-18T15:49:42.392Z,36.35
2022-12-18T15:52:26.989Z,32.20
2022-12-18T15:55:12.600Z,28.90
2022-12-18T15:57:42.649Z,27.80
2022-12-18T16:00:14.458Z,28.90
2022-12-18T16:02:42.906Z,31.50
2022-12-18T16:05:18.082Z,33.05
2022-12-18T16:07:46.216Z,32.37
2022-12-18T16:10:14.381Z,31.67
2022-12-18T16:12:43.718Z,32.35
2022-12-18T16:15:24.556Z,37.17
2022-12-18T16:17:53.749Z,38.03
2022-12-18T16:20:23.973Z,41.08
2022-12-18T16:22:52.153Z,51.55
2022-12-18T16:25:22.379Z,54.00
2022-12-18T16:27:50.961Z,57.75
2022-12-18T16:30:22.641Z,72.63
2022-12-18T16:32:51.114Z,71.55
2022-12-18T16:35:19.596Z,54.67
2022-12-18T16:37:47.612Z,50.05
2022-12-18T16:40:17.698Z,46.90
2022-12-18T16:42:47.416Z,44.22
2022-12-18T16:45:22.080Z,46.72
2022-12-18T16:47:52.330Z,43.40
2022-12-18T16:50:20.460Z,42.85
2022-12-18T16:52:48.608Z,45.83
2022-12-18T16:55:16.842Z,46.35
2022-12-18T16:57:44.943Z,46.17
2022-12-18T17:00:14.496Z,45.50
2022-12-18T17:02:42.850Z,42.55
2022-12-18T17:05:12.847Z,39.03
2022-12-18T17:07:41.092Z,39.13
2022-12-18T17:10:10.127Z,38.42
2022-12-18T17:12:38.190Z,37.33
2022-12-18T17:15:09.884Z,35.53
2022-12-18T17:17:37.971Z,32.05
2022-12-18T17:20:06.771Z,34.33
2022-12-18T17:22:36.156Z,35.38
2022-12-18T17:25:04.543Z,33.40
2022-12-18T17:27:32.613Z,37.65
2022-12-18T17:30:00.646Z,36.25
2022-12-18T17:32:29.165Z,35.08
2022-12-18T17:34:57.274Z,38.22
2022-12-18T17:37:25.680Z,40.08
2022-12-18T17:39:55.718Z,42.53
2022-12-18T17:42:23.896Z,42.70
2022-12-18T17:44:52.329Z,40.67
2022-12-18T17:47:20.393Z,40.92
2022-12-18T17:49:51.229Z,46.10
2022-12-18T17:52:20.091Z,48.08
2022-12-18T17:54:50.166Z,46.72
2022-12-18T17:57:22.525Z,45.88
2022-12-18T17:59:51.914Z,43.58
2022-12-18T18:02:20.305Z,44.63
2022-12-18T18:04:49.254Z,45.00
2022-12-18T18:07:17.381Z,44.72
2022-12-18T18:09:47.714Z,40.10
2022-12-18T18:12:33.204Z,40.13
2022-12-18T18:15:06.080Z,41.28
2022-12-18T18:17:34.240Z,40.65
2022-12-18T18:20:02.513Z,45.00
2022-12-18T18:22:30.599Z,50.80
2022-12-18T18:24:59.356Z,48.15
2022-12-18T18:27:27.487Z,47.10
2022-12-18T18:29:55.644Z,49.17
2022-12-18T18:32:25.762Z,50.83
2022-12-18T18:34:54.207Z,64.35
2022-12-18T18:37:22.571Z,68.90
2022-12-18T18:39:52.685Z,82.45
2022-12-18T18:42:22.099Z,84.82
2022-12-18T18:44:50.308Z,84.32
2022-12-18T18:47:18.427Z,83.90
2022-12-18T18:49:48.170Z,72.45
2022-12-18T18:52:16.744Z,79.35
2022-12-18T18:55:10.827Z,85.60
2022-12-18T18:57:34.313Z,74.28
2022-12-18T19:00:02.495Z,73.95
2022-12-18T19:02:31.282Z,77.30
2022-12-18T19:05:00.802Z,72.95
2022-12-18T19:07:30.513Z,76.70
2022-12-18T19:10:04.197Z,80.72
2022-12-18T19:12:51.813Z,79.53
2022-12-18T19:15:20.130Z,78.45
2022-12-18T19:17:48.696Z,80.72
2022-12-18T19:20:18.421Z,81.28
2022-12-18T19:22:55.500Z,81.13
2022-12-18T19:25:38.112Z,77.53
2022-12-18T19:28:17.373Z,74.85
2022-12-18T19:30:57.268Z,73.03
2022-12-18T19:33:44.654Z,62.53
2022-12-18T19:36:20.005Z,62.15
2022-12-18T19:38:53.118Z,55.53
2022-12-18T19:41:22.435Z,50.40
2022-12-18T19:43:51.889Z,49.28
2022-12-18T19:46:22.567Z,48.58
2022-12-18T19:48:51.538Z,47.33
2022-12-18T19:51:26.633Z,48.03
2022-12-18T19:53:58.964Z,49.53
2022-12-18T19:56:30.155Z,45.92
2022-12-18T19:58:58.677Z,47.80
2022-12-18T20:01:30.145Z,44.90
2022-12-18T20:03:59.755Z,50.63
2022-12-18T20:06:32.236Z,52.10
2022-12-18T20:09:04.795Z,57.53
2022-12-18T20:11:38.394Z,64.28
2022-12-18T20:14:10.540Z,64.25
2022-12-18T20:16:39.478Z,62.38
2022-12-18T20:19:08.947Z,63.13
2022-12-18T20:21:39.623Z,64.13
2022-12-18T20:24:09.235Z,71.35
2022-12-18T20:26:37.410Z,68.90
2022-12-18T20:29:06.343Z,74.10
2022-12-18T20:31:34.742Z,75.00
2022-12-18T20:34:03.772Z,76.68
2022-12-18T20:36:36.577Z,72.28
2022-12-18T20:39:09.988Z,75.53
2022-12-18T20:41:39.455Z,68.88
2022-12-18T20:44:21.558Z,69.28
2022-12-18T20:46:53.028Z,65.55
2022-12-18T20:49:21.347Z,63.80
2022-12-18T20:51:52.516Z,53.55
2022-12-18T20:54:22.875Z,54.47
2022-12-18T20:56:51.585Z,51.60
2022-12-18T20:59:20.023Z,53.28
2022-12-18T21:01:50.317Z,54.05
2022-12-18T21:04:19.143Z,55.13
2022-12-18T21:06:52.064Z,51.88
2022-12-18T21:09:24.615Z,51.60
2022-12-18T21:12:13.217Z,44.42
2022-12-18T21:14:43.522Z,41.55
2022-12-18T21:17:12.117Z,46.50
2022-12-18T21:19:40.678Z,43.65
2022-12-18T21:22:10.965Z,43.38
2022-12-18T21:24:40.875Z,37.50
2022-12-18T21:27:09.263Z,35.15
2022-12-18T21:29:41.040Z,41.10
2022-12-18T21:32:10.301Z,39.17
2022-12-18T21:34:40.334Z,41.63
2022-12-18T21:37:11.722Z,37.13
2022-12-18T21:39:41.912Z,40.70
2022-12-18T21:42:29.215Z,39.85
2022-12-18T21:44:57.494Z,46.95
2022-12-18T21:47:25.998Z,47.33
2022-12-18T21:49:54.869Z,52.80
2022-12-18T21:52:27.248Z,52.38
2022-12-18T21:55:08.961Z,58.22
2022-12-18T21:57:38.527Z,54.38
2022-12-18T22:00:08.334Z,55.45
2022-12-18T22:02:42.716Z,62.15
2022-12-18T22:05:11.119Z,60.58
2022-12-18T22:07:39.969Z,69.95
2022-12-18T22:10:10.500Z,68.18
2022-12-18T22:12:44.403Z,65.15
2022-12-18T22:15:21.538Z,68.97
2022-12-18T22:18:00.152Z,64.00
2022-12-18T22:20:30.020Z,68.28
2022-12-18T22:22:58.649Z,69.65
2022-12-18T22:25:29.096Z,68.47
2022-12-18T22:28:14.997Z,62.58
2022-12-18T22:30:44.342Z,64.47
2022-12-18T22:33:12.635Z,65.00
2022-12-18T22:35:41.100Z,63.17
2022-12-18T22:38:09.443Z,66.15
2022-12-18T22:40:38.899Z,61.85
2022-12-18T22:43:07.327Z,61.92
2022-12-18T22:45:38.389Z,62.63
2022-12-18T22:48:07.359Z,64.10
2022-12-18T22:50:35.612Z,61.55
2022-12-18T22:53:03.779Z,60.03
2022-12-18T22:55:36.332Z,54.80
2022-12-18T22:58:05.838Z,58.70
2022-12-18T23:00:33.829Z,56.05
2022-12-18T23:03:02.293Z,55.85
2022-12-18T23:05:31.486Z,53.60
2022-12-18T23:08:00.022Z,55.13
2022-12-18T23:10:29.002Z,54.90
2022-12-18T23:12:57.299Z,56.10
2022-12-18T23:15:28.216Z,56.88
2022-12-18T23:17:59.002Z,55.90
2022-12-18T23:20:27.630Z,56.85
2022-12-18T23:22:55.734Z,57.45
2022-12-18T23:25:24.126Z,58.72
2022-12-18T23:27:52.328Z,56.83
2022-12-18T23:30:20.392Z,57.13
2022-12-18T23:32:49.848Z,57.60
2022-12-18T23:35:18.622Z,56.08
2022-12-18T23:38:03.924Z,50.78
2022-12-18T23:40:36.062Z,49.10
2022-12-18T23:43:04.201Z,46.13
2022-12-18T23:45:32.277Z,39.17
2022-12-18T23:48:01.712Z,37.17
2022-12-18T23:50:30.355Z,38.33
2022-12-18T23:53:04.596Z,35.28
2022-12-18T23:55:33.649Z,41.05
2022-12-18T23:58:01.668Z,37.55
